Time;durP1;ratioP1;P1;durP2;ratioP2;P2;SDS_P1;SDS_P2;PMS_P1;PMS_P2;Temp;Humidity;BMP_temperature;BMP_pressure;BME280_temperature;BME280_humidity;BME280_pressure;Samples;Min_cycle;Max_cycle;Signal;HPM_P1;HPM_P2
2020/12/08 00:00:21;;;;;;;9.15;4.95;;;3.70;90.90;;;;;;5104849;28;20051;-80
2020/12/08 00:03:05;;;;;;;14.85;6.63;;;3.80;91.30;;;;;;5102071;28;20314;-81
2020/12/08 00:05:40;;;;;;;10.85;5.88;;;3.90;90.00;;;;;;5122125;28;20047;-80
2020/12/08 00:08:14;;;;;;;10.98;4.93;;;3.90;90.90;;;;;;5103435;28;20071;-83
2020/12/08 00:10:53;;;;;;;10.55;4.30;;;4.00;90.00;;;;;;5062636;28;20048;-80
2020/12/08 00:13:26;;;;;;;10.80;5.03;;;4.10;89.80;;;;;;5100477;28;20055;-82
2020/12/08 00:15:55;;;;;;;11.55;5.00;;;4.00;88.90;;;;;;5102634;28;20315;-81
2020/12/08 00:18:30;;;;;;;9.98;4.53;;;4.00;89.10;;;;;;5077522;28;20266;-82
2020/12/08 00:21:03;;;;;;;9.63;5.15;;;4.00;89.10;;;;;;5059701;28;20044;-84
2020/12/08 00:23:33;;;;;;;11.32;5.32;;;3.90;87.70;;;;;;5059892;28;20097;-82
2020/12/08 00:26:06;;;;;;;10.25;5.00;;;3.90;88.40;;;;;;5064300;28;20044;-83
2020/12/08 00:28:39;;;;;;;8.02;3.72;;;4.00;87.60;;;;;;5079463;28;20051;-82
2020/12/08 00:31:10;;;;;;;9.27;4.05;;;4.00;87.20;;;;;;5102532;28;20040;-82
2020/12/08 00:33:40;;;;;;;9.27;4.22;;;4.00;87.30;;;;;;5079341;28;20044;-80
2020/12/08 00:36:17;;;;;;;9.68;4.30;;;4.10;86.70;;;;;;5083681;28;20056;-83
2020/12/08 00:38:50;;;;;;;9.73;3.70;;;4.10;86.90;;;;;;5083528;28;20055;-83
2020/12/08 00:41:21;;;;;;;8.05;3.75;;;4.10;87.80;;;;;;5099755;27;20111;-81
2020/12/08 00:43:52;;;;;;;10.80;4.85;;;4.10;86.30;;;;;;5068917;28;20065;-82
2020/12/08 00:46:25;;;;;;;8.95;4.05;;;4.10;85.90;;;;;;5101828;28;20082;-83
2020/12/08 00:48:57;;;;;;;8.98;4.90;;;4.10;85.90;;;;;;5092086;28;20351;-83
2020/12/08 00:51:29;;;;;;;6.93;3.33;;;4.10;86.30;;;;;;5085040;28;20048;-82
2020/12/08 00:54:04;;;;;;;7.60;3.42;;;4.10;85.60;;;;;;5094931;28;20227;-84
2020/12/08 00:56:36;;;;;;;8.80;3.80;;;4.10;85.70;;;;;;5076479;28;20054;-83
2020/12/08 00:59:13;;;;;;;10.40;4.47;;;4.20;85.60;;;;;;5093736;28;20163;-81
2020/12/08 01:01:52;;;;;;;7.28;3.83;;;4.20;85.90;;;;;;5104581;28;20048;-82
2020/12/08 01:04:25;;;;;;;9.07;4.43;;;4.20;86.00;;;;;;5115917;27;20070;-82
2020/12/08 01:07:00;;;;;;;8.57;4.25;;;4.10;85.70;;;;;;5103563;28;20048;-81
2020/12/08 01:09:32;;;;;;;8.98;4.70;;;4.10;86.10;;;;;;5065214;28;20043;-81
2020/12/08 01:12:06;;;;;;;9.75;4.15;;;4.10;86.50;;;;;;5081537;28;20036;-80
2020/12/08 01:14:49;;;;;;;7.90;3.67;;;4.20;86.80;;;;;;5079734;28;20052;-83
2020/12/08 01:17:24;;;;;;;8.38;3.92;;;4.20;86.20;;;;;;5081036;28;20371;-82
2020/12/08 01:20:01;;;;;;;9.65;4.28;;;4.20;86.10;;;;;;5100479;28;20073;-85
2020/12/08 01:22:34;;;;;;;10.73;5.03;;;4.00;86.40;;;;;;5046860;28;20052;-84
2020/12/08 01:25:07;;;;;;;9.00;5.03;;;3.90;87.40;;;;;;5047577;28;20051;-83
2020/12/08 01:27:40;;;;;;;8.57;3.80;;;3.80;87.40;;;;;;5065649;28;20115;-82
2020/12/08 01:30:20;;;;;;;11.43;4.80;;;3.70;87.70;;;;;;5061847;28;20127;-81
2020/12/08 01:32:51;;;;;;;10.80;4.25;;;3.70;88.20;;;;;;5081184;28;20354;-84
2020/12/08 01:35:26;;;;;;;8.18;3.70;;;3.60;88.40;;;;;;5083502;28;20089;-83
2020/12/08 01:38:03;;;;;;;11.30;4.85;;;3.50;88.90;;;;;;5082141;28;20065;-83
2020/12/08 01:40:35;;;;;;;8.77;4.60;;;3.40;89.50;;;;;;5101301;28;20058;-82
2020/12/08 01:43:08;;;;;;;9.93;4.22;;;3.20;90.00;;;;;;5075388;28;20072;-80
2020/12/08 01:45:41;;;;;;;10.18;5.40;;;3.10;90.90;;;;;;5063726;28;20050;-82
2020/12/08 01:48:11;;;;;;;10.77;4.72;;;3.20;90.60;;;;;;5047101;28;20113;-82
2020/12/08 01:50:43;;;;;;;9.88;4.63;;;3.20;90.40;;;;;;5093145;28;20366;-83
2020/12/08 01:53:16;;;;;;;9.95;4.68;;;3.00;90.80;;;;;;5094656;28;20047;-83
2020/12/08 01:55:53;;;;;;;12.13;4.90;;;2.90;91.30;;;;;;5066585;28;20355;-82
2020/12/08 01:58:25;;;;;;;7.95;3.13;;;2.80;91.50;;;;;;5079689;28;20048;-83
2020/12/08 02:01:08;;;;;;;8.68;3.58;;;2.70;91.60;;;;;;5094919;28;20043;-83
2020/12/08 02:03:38;;;;;;;10.50;5.63;;;2.70;92.00;;;;;;5106441;28;20105;-83
2020/12/08 02:06:10;;;;;;;8.18;3.67;;;2.50;92.10;;;;;;5098343;28;20115;-83
2020/12/08 02:08:42;;;;;;;8.13;4.10;;;2.40;92.30;;;;;;5096244;28;20040;-82
2020/12/08 02:11:22;;;;;;;8.50;3.30;;;2.30;92.70;;;;;;5080979;28;20048;-81
2020/12/08 02:13:55;;;;;;;9.13;4.40;;;2.20;92.70;;;;;;5096809;28;20117;-79
2020/12/08 02:16:28;;;;;;;9.80;3.63;;;2.20;92.90;;;;;;5080659;28;20058;-81
2020/12/08 02:19:00;;;;;;;10.73;4.35;;;2.10;92.50;;;;;;5094071;28;20048;-82
2020/12/08 02:21:46;;;;;;;9.77;4.60;;;2.00;93.00;;;;;;5081703;28;20045;-84
2020/12/08 02:24:21;;;;;;;9.88;4.63;;;1.80;93.50;;;;;;5095957;28;20237;-80
2020/12/08 02:26:59;;;;;;;6.93;3.42;;;1.70;93.70;;;;;;5088335;28;20052;-80
2020/12/08 02:29:34;;;;;;;9.32;4.07;;;1.70;93.90;;;;;;5110132;28;20047;-82
2020/12/08 02:32:05;;;;;;;12.73;4.57;;;1.70;94.10;;;;;;5117431;28;20125;-82
2020/12/08 02:34:36;;;;;;;8.02;4.20;;;1.70;94.10;;;;;;5082726;28;20052;-81
2020/12/08 02:37:10;;;;;;;9.65;4.18;;;1.80;94.10;;;;;;5095365;28;20062;-82
2020/12/08 02:39:52;;;;;;;14.60;4.30;;;1.90;94.00;;;;;;5095853;28;20047;-79
2020/12/08 02:42:26;;;;;;;9.98;4.28;;;1.90;93.80;;;;;;5077223;28;20274;-80
2020/12/08 02:44:58;;;;;;;8.60;3.95;;;2.00;93.70;;;;;;5094532;28;20327;-81
2020/12/08 02:47:30;;;;;;;7.55;3.72;;;2.00;93.70;;;;;;5100789;28;20047;-80
2020/12/08 02:50:04;;;;;;;5.75;3.17;;;2.10;93.70;;;;;;5117170;28;20370;-81
2020/12/08 02:52:37;;;;;;;10.85;4.50;;;2.20;93.10;;;;;;5081056;28;20302;-80
2020/12/08 02:55:08;;;;;;;8.38;3.70;;;2.20;93.00;;;;;;5100711;28;20347;-80
2020/12/08 02:57:52;;;;;;;11.52;3.88;;;2.20;92.70;;;;;;5104404;28;20044;-79
2020/12/08 03:00:29;;;;;;;9.32;3.80;;;2.20;92.30;;;;;;5066675;28;20040;-81
2020/12/08 03:03:02;;;;;;;7.85;3.85;;;2.20;92.20;;;;;;5075604;28;20068;-81
2020/12/08 03:05:35;;;;;;;8.48;3.63;;;2.20;91.90;;;;;;5075248;28;20056;-79
2020/12/08 03:08:09;;;;;;;8.52;4.10;;;2.30;91.90;;;;;;5107737;28;20066;-81
2020/12/08 03:10:44;;;;;;;9.02;3.97;;;2.40;91.70;;;;;;5097978;28;20115;-81
2020/12/08 03:13:16;;;;;;;9.98;4.28;;;2.40;91.50;;;;;;5099653;28;20115;-80
2020/12/08 03:15:53;;;;;;;7.30;3.28;;;2.20;91.20;;;;;;5060466;28;20330;-80
2020/12/08 03:18:22;;;;;;;8.98;3.80;;;2.20;91.40;;;;;;5094719;28;20066;-80
2020/12/08 03:20:58;;;;;;;8.30;3.75;;;2.30;91.40;;;;;;5098384;28;20052;-80
2020/12/08 03:23:30;;;;;;;7.13;3.90;;;2.20;91.50;;;;;;5094046;28;20063;-80
2020/12/08 03:26:00;;;;;;;8.13;4.32;;;2.30;91.50;;;;;;5076702;28;20120;-79
2020/12/08 03:28:35;;;;;;;9.43;3.83;;;2.30;91.40;;;;;;5088838;28;20246;-80
2020/12/08 03:31:06;;;;;;;8.85;4.75;;;2.40;91.70;;;;;;5097565;28;20094;-80
2020/12/08 03:33:45;;;;;;;11.82;3.80;;;2.40;91.70;;;;;;5088531;28;20071;-80
2020/12/08 03:36:18;;;;;;;9.35;4.15;;;2.50;91.40;;;;;;5081067;28;20101;-80
2020/12/08 03:38:51;;;;;;;10.38;4.60;;;2.40;91.50;;;;;;5096704;28;20062;-80
2020/12/08 03:41:27;;;;;;;9.20;4.32;;;2.40;91.20;;;;;;5099222;28;20055;-79
2020/12/08 03:44:05;;;;;;;10.18;4.35;;;2.40;91.30;;;;;;5100999;28;20074;-80
2020/12/08 03:46:34;;;;;;;8.35;3.63;;;2.30;91.30;;;;;;5074387;28;20055;-81
2020/12/08 03:49:05;;;;;;;10.02;4.22;;;2.40;91.40;;;;;;5062022;28;20044;-82
2020/12/08 03:51:36;;;;;;;8.05;4.32;;;2.40;91.30;;;;;;5078232;28;20176;-82
2020/12/08 03:54:19;;;;;;;9.75;4.57;;;2.50;91.50;;;;;;5084566;28;20051;-81
2020/12/08 03:56:51;;;;;;;7.40;3.45;;;2.70;91.20;;;;;;5082338;28;20087;-80
2020/12/08 03:59:26;;;;;;;10.40;4.10;;;2.80;90.40;;;;;;5064002;28;20404;-79
2020/12/08 04:02:04;;;;;;;9.75;4.32;;;2.90;90.10;;;;;;5100297;28;20067;-81
2020/12/08 04:04:35;;;;;;;8.82;3.63;;;2.80;90.50;;;;;;5074322;28;20102;-80
2020/12/08 04:07:06;;;;;;;9.93;3.78;;;2.70;90.90;;;;;;5094506;28;20048;-81
2020/12/08 04:09:42;;;;;;;7.13;3.20;;;2.70;91.20;;;;;;5109962;28;20074;-81
2020/12/08 04:12:17;;;;;;;9.57;3.83;;;2.80;91.30;;;;;;5081182;28;20043;-84
2020/12/08 04:14:48;;;;;;;9.68;3.75;;;2.80;90.80;;;;;;5100018;28;20052;-80
2020/12/08 04:17:21;;;;;;;11.95;4.65;;;2.90;90.70;;;;;;5074018;28;20044;-81
2020/12/08 04:19:58;;;;;;;7.90;4.07;;;2.90;90.70;;;;;;5098499;28;20056;-80
2020/12/08 04:22:30;;;;;;;8.23;3.60;;;2.90;90.90;;;;;;5076859;28;20053;-80
2020/12/08 04:25:08;;;;;;;8.77;3.83;;;2.80;91.10;;;;;;5070323;28;20063;-84
2020/12/08 04:27:39;;;;;;;8.80;4.07;;;3.00;91.00;;;;;;5067981;28;20123;-80
2020/12/08 04:30:13;;;;;;;7.47;3.40;;;3.00;90.70;;;;;;5080860;28;20044;-81
2020/12/08 04:32:48;;;;;;;12.48;5.30;;;3.00;90.80;;;;;;5082235;28;20067;-84
2020/12/08 04:35:20;;;;;;;9.23;3.53;;;3.00;90.60;;;;;;5076230;28;20073;-79
2020/12/08 04:37:52;;;;;;;8.85;3.60;;;2.90;90.90;;;;;;5098719;28;20059;-81
2020/12/08 04:40:29;;;;;;;6.65;3.67;;;3.00;90.70;;;;;;5080315;28;20036;-81
2020/12/08 04:43:00;;;;;;;10.75;4.88;;;3.00;90.70;;;;;;5096933;28;20119;-79
2020/12/08 04:45:35;;;;;;;7.78;3.45;;;3.00;91.30;;;;;;5093652;28;20052;-80
2020/12/08 04:48:06;;;;;;;9.55;4.60;;;3.20;90.90;;;;;;5090241;28;20052;-80
2020/12/08 04:50:38;;;;;;;10.63;4.43;;;3.20;90.40;;;;;;5080780;28;20097;-81
2020/12/08 04:53:08;;;;;;;9.30;4.88;;;3.00;90.90;;;;;;5078784;28;20047;-82
2020/12/08 04:55:42;;;;;;;12.80;5.10;;;3.00;91.30;;;;;;5098826;28;20052;-80
2020/12/08 04:58:16;;;;;;;10.05;3.72;;;3.00;91.20;;;;;;5090900;28;21055;-80
2020/12/08 05:00:56;;;;;;;10.82;4.30;;;3.00;91.40;;;;;;5114800;28;20332;-81
2020/12/08 05:03:28;;;;;;;11.90;5.03;;;3.10;91.60;;;;;;5092561;28;20043;-82
2020/12/08 05:05:59;;;;;;;10.68;4.38;;;3.20;91.00;;;;;;5085161;28;20055;-81
2020/12/08 05:08:29;;;;;;;8.90;4.28;;;3.20;90.80;;;;;;5112457;28;20392;-79
2020/12/08 05:11:09;;;;;;;9.57;4.55;;;3.20;91.00;;;;;;5101783;28;20071;-81
2020/12/08 05:13:39;;;;;;;10.13;4.28;;;3.10;90.90;;;;;;5084067;28;20358;-82
2020/12/08 05:16:12;;;;;;;9.45;4.78;;;3.20;91.10;;;;;;5075804;28;20047;-81
2020/12/08 05:18:41;;;;;;;10.85;4.32;;;3.10;91.00;;;;;;5077472;28;20470;-80
2020/12/08 05:21:15;;;;;;;10.10;4.68;;;3.20;91.40;;;;;;5095637;28;20062;-80
2020/12/08 05:23:50;;;;;;;8.70;3.72;;;3.20;91.40;;;;;;5113218;28;20074;-79
2020/12/08 05:26:22;;;;;;;9.00;4.13;;;3.20;91.30;;;;;;5076878;28;20051;-81
2020/12/08 05:29:00;;;;;;;9.65;4.60;;;3.20;91.10;;;;;;5052611;28;20281;-79
2020/12/08 05:31:35;;;;;;;11.20;4.57;;;3.20;91.10;;;;;;5095611;28;20051;-82
2020/12/08 05:34:07;;;;;;;8.18;3.95;;;3.20;91.30;;;;;;5098655;28;20342;-81
2020/12/08 05:36:54;;;;;;;11.73;5.10;;;3.20;91.20;;;;;;5053872;28;20063;-81
2020/12/08 05:39:24;;;;;;;8.23;3.03;;;3.20;91.10;;;;;;5078904;28;20043;-82
2020/12/08 05:41:57;;;;;;;11.20;4.22;;;3.40;90.90;;;;;;5098796;28;20063;-81
2020/12/08 05:44:27;;;;;;;9.40;4.50;;;3.50;90.50;;;;;;5093959;28;20060;-80
2020/12/08 05:46:56;;;;;;;10.95;3.85;;;3.50;90.10;;;;;;5097911;28;20056;-79
2020/12/08 05:49:27;;;;;;;10.38;4.90;;;3.40;90.20;;;;;;5077884;28;20105;-82
2020/12/08 05:52:01;;;;;;;10.48;3.80;;;3.40;90.40;;;;;;5064740;28;20054;-82
2020/12/08 05:54:32;;;;;;;8.70;4.07;;;3.30;90.70;;;;;;5089678;28;20119;-79
2020/12/08 05:57:15;;;;;;;8.98;3.75;;;3.20;91.00;;;;;;5078562;28;20044;-81
2020/12/08 05:59:57;;;;;;;8.63;3.78;;;3.20;91.00;;;;;;5088770;28;20071;-81
2020/12/08 06:02:32;;;;;;;9.48;4.50;;;3.20;91.10;;;;;;5069734;28;20056;-80
2020/12/08 06:05:05;;;;;;;9.18;4.57;;;3.10;90.70;;;;;;5080863;28;20056;-80
2020/12/08 06:07:35;;;;;;;;;;;3.10;91.30;;;;;;5095648;28;20048;-80
2020/12/08 06:10:12;;;;;;;8.75;4.60;;;3.10;91.20;;;;;;5088931;28;20257;-81
2020/12/08 06:12:43;;;;;;;10.35;3.78;;;3.20;91.30;;;;;;5091532;28;20040;-81
2020/12/08 06:15:22;;;;;;;8.48;3.28;;;3.20;91.20;;;;;;5089352;28;20043;-80
2020/12/08 06:17:51;;;;;;;9.05;3.83;;;3.20;91.10;;;;;;5073676;28;20043;-81
2020/12/08 06:20:21;;;;;;;9.05;4.22;;;3.20;91.20;;;;;;5094393;28;20247;-80
2020/12/08 06:22:56;;;;;;;10.73;4.78;;;3.30;91.10;;;;;;5091567;28;20047;-81
2020/12/08 06:25:29;;;;;;;9.48;3.88;;;3.40;90.60;;;;;;5089233;28;20355;-83
2020/12/08 06:28:03;;;;;;;9.95;3.97;;;3.50;90.60;;;;;;5067033;28;20052;-82
2020/12/08 06:30:32;;;;;;;7.82;4.13;;;3.50;90.30;;;;;;5060529;28;20227;-82
2020/12/08 06:33:03;;;;;;;9.55;4.38;;;3.40;90.50;;;;;;5080716;28;20097;-80
2020/12/08 06:35:36;;;;;;;7.32;3.67;;;3.30;90.90;;;;;;5083719;28;20131;-79
2020/12/08 06:38:06;;;;;;;11.27;4.10;;;3.30;91.30;;;;;;5080659;28;20056;-79
2020/12/08 06:40:39;;;;;;;9.97;3.40;;;3.30;91.00;;;;;;5099292;28;20090;-81
2020/12/08 06:43:16;;;;;;;10.48;3.67;;;3.30;90.90;;;;;;5095294;28;20040;-80
2020/12/08 06:45:47;;;;;;;6.75;3.03;;;3.30;90.80;;;;;;5117352;28;20112;-82
2020/12/08 06:48:24;;;;;;;9.82;3.42;;;3.30;91.20;;;;;;5096105;28;20085;-80
2020/12/08 06:50:54;;;;;;;7.45;3.58;;;3.20;91.30;;;;;;5089357;28;20120;-79
2020/12/08 06:53:27;;;;;;;14.05;3.83;;;3.20;91.50;;;;;;5097511;28;20060;-81
2020/12/08 06:55:58;;;;;;;6.35;3.00;;;3.20;91.30;;;;;;5094775;28;20059;-80
2020/12/08 06:58:32;;;;;;;6.63;2.90;;;3.30;91.30;;;;;;5099951;28;20077;-80
2020/12/08 07:01:14;;;;;;;6.45;3.03;;;3.40;90.70;;;;;;5116390;28;20708;-80
2020/12/08 07:03:43;;;;;;;8.93;3.78;;;3.30;90.90;;;;;;5100351;28;20112;-81
2020/12/08 07:06:15;;;;;;;6.25;2.90;;;3.30;91.20;;;;;;5104383;28;20092;-81
2020/12/08 07:08:50;;;;;;;6.47;2.95;;;3.30;91.00;;;;;;5097573;28;20062;-79
2020/12/08 07:11:22;;;;;;;6.80;3.20;;;3.30;91.30;;;;;;5097590;28;20060;-80
2020/12/08 07:14:04;;;;;;;7.68;3.75;;;3.30;91.30;;;;;;5093020;28;20342;-80
2020/12/08 07:16:36;;;;;;;6.65;2.90;;;3.40;90.70;;;;;;5117738;28;21242;-82
2020/12/08 07:19:09;;;;;;;7.82;3.22;;;3.30;91.00;;;;;;5081666;28;20054;-80
2020/12/08 07:21:39;;;;;;;8.88;3.78;;;3.20;91.30;;;;;;5076942;28;20055;-83
2020/12/08 07:24:07;;;;;;;9.73;4.00;;;3.40;91.10;;;;;;5093181;28;20047;-82
2020/12/08 07:26:36;;;;;;;7.35;3.80;;;3.40;90.80;;;;;;5120260;28;20285;-80
2020/12/08 07:29:08;;;;;;;8.63;3.35;;;3.20;91.10;;;;;;5120560;27;20047;-80
2020/12/08 07:31:47;;;;;;;8.02;3.08;;;3.20;91.10;;;;;;5099746;28;20063;-80
2020/12/08 07:34:16;;;;;;;8.13;4.07;;;3.30;91.10;;;;;;5100373;28;20060;-80
2020/12/08 07:36:43;;;;;;;8.23;3.47;;;3.40;90.70;;;;;;5066552;28;20048;-80
2020/12/08 07:39:17;;;;;;;8.40;3.53;;;3.50;90.30;;;;;;5073470;28;20115;-80
2020/12/08 07:41:44;;;;;;;8.50;3.95;;;3.50;90.20;;;;;;5081801;28;20067;-81
2020/12/08 07:44:14;;;;;;;9.15;5.40;;;3.40;90.20;;;;;;5102367;28;20079;-82
2020/12/08 07:46:49;;;;;;;9.32;5.00;;;3.20;90.30;;;;;;5074923;28;20060;-81
2020/12/08 07:49:19;;;;;;;8.32;4.22;;;3.20;90.50;;;;;;5100825;28;23061;-80
2020/12/08 07:51:49;;;;;;;11.30;5.57;;;3.30;90.60;;;;;;5100697;28;20051;-81
2020/12/08 07:54:16;;;;;;;11.70;5.25;;;3.20;90.50;;;;;;5097567;28;20069;-80
2020/12/08 07:56:44;;;;;;;10.18;4.57;;;3.20;91.10;;;;;;5096304;28;20064;-82
2020/12/08 07:59:12;;;;;;;12.32;4.70;;;3.20;91.40;;;;;;5083545;28;20101;-82
2020/12/08 08:01:41;;;;;;;8.95;5.15;;;3.20;91.50;;;;;;5105026;28;20082;-81
2020/12/08 08:04:08;;;;;;;8.20;3.97;;;3.20;91.50;;;;;;5084518;28;20313;-82
2020/12/08 08:06:37;;;;;;;6.55;3.08;;;3.30;91.30;;;;;;5084791;28;20363;-82
2020/12/08 08:09:10;;;;;;;19.25;3.47;;;3.40;90.90;;;;;;5115610;28;20043;-80
2020/12/08 08:11:38;;;;;;;8.30;3.30;;;3.30;90.50;;;;;;5086171;28;20265;-80
2020/12/08 08:14:05;;;;;;;7.35;3.38;;;3.20;90.50;;;;;;5081839;28;20063;-80
2020/12/08 08:16:34;;;;;;;8.40;3.70;;;3.30;90.10;;;;;;5083946;28;20432;-80
2020/12/08 08:19:03;;;;;;;7.10;3.53;;;3.30;89.90;;;;;;5102089;28;20123;-81
2020/12/08 08:21:30;;;;;;;9.07;3.95;;;3.20;90.20;;;;;;5101524;28;20059;-83
2020/12/08 08:23:58;;;;;;;6.80;3.78;;;3.20;89.70;;;;;;5082644;28;20055;-80
2020/12/08 08:26:25;;;;;;;10.00;3.60;;;3.30;89.20;;;;;;5119539;28;20063;-80
2020/12/08 08:28:54;;;;;;;8.82;3.80;;;3.40;88.80;;;;;;5119628;28;20070;-80
2020/12/08 08:31:21;;;;;;;9.75;4.00;;;3.40;88.60;;;;;;5085034;28;20058;-80
2020/12/08 08:33:48;;;;;;;6.95;3.15;;;3.50;88.00;;;;;;5083601;28;20205;-84
2020/12/08 08:36:16;;;;;;;9.23;4.05;;;3.60;88.00;;;;;;5074859;28;20063;-82
2020/12/08 08:38:43;;;;;;;7.60;3.30;;;3.70;87.30;;;;;;5078276;28;20323;-82
2020/12/08 08:41:10;;;;;;;8.10;3.97;;;3.70;87.40;;;;;;5075992;28;20110;-80
2020/12/08 08:43:37;;;;;;;7.60;3.53;;;3.60;87.50;;;;;;5082329;28;20060;-82
2020/12/08 08:46:04;;;;;;;9.10;4.63;;;3.50;87.60;;;;;;5093728;28;20047;-80
2020/12/08 08:48:32;;;;;;;9.02;4.07;;;3.70;86.90;;;;;;5087307;28;20058;-81
2020/12/08 08:51:00;;;;;;;9.32;4.20;;;3.70;86.80;;;;;;5073388;28;20049;-81
2020/12/08 08:53:28;;;;;;;7.45;3.78;;;3.80;86.30;;;;;;5071776;28;20056;-79
2020/12/08 08:55:56;;;;;;;9.02;3.67;;;4.00;85.60;;;;;;5092952;28;20074;-80
2020/12/08 08:58:23;;;;;;;9.18;3.42;;;4.10;85.30;;;;;;5095291;28;20123;-81
2020/12/08 09:00:50;;;;;;;8.90;3.70;;;4.20;85.40;;;;;;5078931;28;20036;-81
2020/12/08 09:03:17;;;;;;;8.38;3.95;;;4.30;84.70;;;;;;5097877;28;20043;-85
2020/12/08 09:05:44;;;;;;;7.53;4.60;;;4.50;84.60;;;;;;5103649;28;20051;-82
2020/12/08 09:08:20;;;;;;;184.82;61.25;;;5.10;83.60;;;;;;5115872;28;20149;-81
2020/12/08 09:10:47;;;;;;;97.40;39.97;;;5.90;80.40;;;;;;5077835;28;20062;-81
2020/12/08 09:13:14;;;;;;;53.10;19.70;;;6.70;78.60;;;;;;5098235;28;20051;-81
2020/12/08 09:15:41;;;;;;;254.80;106.10;;;7.20;76.00;;;;;;5118510;28;20053;-81
2020/12/08 09:18:08;;;;;;;106.60;51.03;;;7.60;75.30;;;;;;5118854;28;20051;-81
2020/12/08 09:20:35;;;;;;;22.63;11.30;;;8.00;73.80;;;;;;5097280;28;20061;-82
2020/12/08 09:23:04;;;;;;;131.02;75.72;;;8.60;70.20;;;;;;5097946;28;20454;-81
2020/12/08 09:25:33;;;;;;;64.25;40.85;;;8.90;67.90;;;;;;5094030;28;20063;-79
2020/12/08 09:28:01;;;;;;;14.30;9.90;;;9.00;69.20;;;;;;5078641;28;20055;-79
2020/12/08 09:30:29;;;;;;;18.38;11.95;;;9.40;65.80;;;;;;5098171;28;20055;-83
2020/12/08 09:32:56;;;;;;;8.75;4.47;;;9.50;64.20;;;;;;5119534;28;20065;-81
2020/12/08 09:35:23;;;;;;;7.72;4.20;;;9.80;64.40;;;;;;5120680;28;20111;-80
2020/12/08 09:37:50;;;;;;;8.18;4.45;;;10.00;62.70;;;;;;5118365;28;20056;-81
2020/12/08 09:40:17;;;;;;;17.73;8.07;;;10.20;60.90;;;;;;5079308;28;20158;-82
2020/12/08 09:42:45;;;;;;;9.70;5.43;;;10.20;60.50;;;;;;5115187;28;20067;-81
2020/12/08 09:45:12;;;;;;;9.60;5.05;;;10.70;60.60;;;;;;5094490;28;20114;-82
2020/12/08 09:47:39;;;;;;;11.93;7.20;;;10.90;61.00;;;;;;5118086;28;20410;-81
2020/12/08 09:50:09;;;;;;;8.85;4.75;;;10.90;57.70;;;;;;5094589;28;20063;-82
2020/12/08 09:52:36;;;;;;;8.75;3.97;;;11.60;55.00;;;;;;5094953;28;20123;-81
2020/12/08 09:55:03;;;;;;;8.98;4.03;;;11.80;55.70;;;;;;5092676;28;20048;-82
2020/12/08 09:57:31;;;;;;;9.13;4.43;;;11.60;53.70;;;;;;5117359;28;20043;-82
2020/12/08 10:00:00;;;;;;;8.40;4.45;;;10.50;57.20;;;;;;5097658;28;20055;-84
2020/12/08 10:02:38;;;;;;;7.95;4.13;;;11.10;54.90;;;;;;5097819;28;20054;-83
2020/12/08 10:05:06;;;;;;;8.05;4.50;;;11.20;55.50;;;;;;5113306;28;20063;-83
2020/12/08 10:07:33;;;;;;;8.57;4.55;;;10.90;56.30;;;;;;5117655;28;20065;-83
2020/12/08 10:10:00;;;;;;;7.90;4.35;;;11.00;57.70;;;;;;5113064;28;20384;-81
2020/12/08 10:12:29;;;;;;;9.03;5.07;;;10.10;56.90;;;;;;5097467;28;20044;-82
2020/12/08 10:14:56;;;;;;;9.98;4.57;;;10.50;57.90;;;;;;5114153;28;20297;-81
2020/12/08 10:17:24;;;;;;;10.45;4.85;;;9.50;58.80;;;;;;5098149;28;20063;-80
2020/12/08 10:19:51;;;;;;;10.00;5.03;;;8.40;61.70;;;;;;5083653;28;20083;-80
2020/12/08 10:22:18;;;;;;;10.57;5.32;;;7.80;66.10;;;;;;5098333;28;20047;-82
2020/12/08 10:24:45;;;;;;;10.48;5.30;;;7.70;66.40;;;;;;5117763;28;20080;-82
2020/12/08 10:27:12;;;;;;;11.70;5.80;;;7.50;66.10;;;;;;5095680;28;20228;-81
2020/12/08 10:29:39;;;;;;;9.40;4.60;;;7.50;68.10;;;;;;5089708;28;20036;-82
2020/12/08 10:32:06;;;;;;;12.07;6.13;;;7.80;68.50;;;;;;5098623;28;20081;-82
2020/12/08 10:34:34;;;;;;;13.68;5.68;;;8.00;66.10;;;;;;5093866;28;20072;-83
2020/12/08 10:37:01;;;;;;;10.77;5.07;;;8.00;66.20;;;;;;5113169;28;20051;-79
2020/12/08 10:39:28;;;;;;;9.88;5.00;;;7.70;66.70;;;;;;5082457;28;20062;-81
2020/12/08 10:41:56;;;;;;;9.80;5.45;;;8.20;65.10;;;;;;5094924;28;20055;-81
2020/12/08 10:44:24;;;;;;;11.07;5.32;;;8.00;66.10;;;;;;5056702;28;20060;-80
2020/12/08 10:46:52;;;;;;;10.88;5.53;;;7.60;67.30;;;;;;5097912;28;20083;-82
2020/12/08 10:49:21;;;;;;;11.25;5.40;;;7.60;66.80;;;;;;5096156;28;20052;-81
2020/12/08 10:51:51;;;;;;;12.88;5.53;;;7.50;67.50;;;;;;5078372;28;20086;-82
2020/12/08 10:54:31;;;;;;;10.70;6.15;;;7.50;67.10;;;;;;1752402;28;10023368;-82
2020/12/08 10:56:59;;;;;;;9.77;5.30;;;7.50;66.30;;;;;;4018989;28;10001228;-82
2020/12/08 10:59:26;;;;;;;9.63;4.85;;;7.30;67.20;;;;;;5073065;28;20178;-81
2020/12/08 11:01:56;;;;;;;11.50;6.15;;;7.60;67.70;;;;;;5071525;28;20050;-84
2020/12/08 11:04:24;;;;;;;11.57;6.40;;;7.90;68.20;;;;;;5070644;28;20040;-82
2020/12/08 11:06:57;;;;;;;14.18;8.48;;;8.10;67.50;;;;;;5069093;28;20053;-82
2020/12/08 11:09:28;;;;;;;12.70;6.35;;;8.40;66.70;;;;;;5070162;28;20095;-84
2020/12/08 11:11:55;;;;;;;9.75;4.80;;;8.10;65.80;;;;;;5073261;28;20060;-83
2020/12/08 11:14:23;;;;;;;11.80;5.20;;;8.70;64.90;;;;;;5068177;28;20084;-82
2020/12/08 11:16:51;;;;;;;10.70;5.45;;;9.00;63.60;;;;;;5073778;28;20338;-81
2020/12/08 11:19:19;;;;;;;14.23;6.55;;;8.90;61.70;;;;;;5054409;28;20271;-82
2020/12/08 11:21:46;;;;;;;11.25;6.88;;;9.30;61.80;;;;;;5070588;28;20053;-81
2020/12/08 11:24:14;;;;;;;12.20;6.68;;;10.70;58.80;;;;;;5070979;28;20044;-81
2020/12/08 11:26:44;;;;;;;11.38;6.18;;;11.40;56.60;;;;;;5081457;28;20060;-84
2020/12/08 11:29:12;;;;;;;12.20;5.97;;;12.10;55.30;;;;;;5069836;28;20060;-82
2020/12/08 11:31:40;;;;;;;12.05;5.95;;;12.80;51.20;;;;;;5050765;28;20048;-83
2020/12/08 11:34:09;;;;;;;13.88;6.35;;;13.10;50.70;;;;;;5056421;28;20041;-83
2020/12/08 11:36:37;;;;;;;13.07;6.30;;;13.40;49.00;;;;;;5071919;28;20413;-80
2020/12/08 11:39:20;;;;;;;13.20;6.25;;;13.20;49.20;;;;;;5071138;28;20049;-82
2020/12/08 11:41:50;;;;;;;11.27;6.53;;;13.70;49.80;;;;;;5071400;28;20060;-83
2020/12/08 11:44:18;;;;;;;14.52;7.70;;;15.10;45.70;;;;;;5076844;28;20052;-82
2020/12/08 11:46:49;;;;;;;12.93;6.63;;;15.10;44.10;;;;;;5071467;28;20060;-82
2020/12/08 11:49:17;;;;;;;28.92;15.65;;;15.10;43.70;;;;;;5079456;28;20048;-82
2020/12/08 11:51:45;;;;;;;13.70;6.53;;;14.70;46.50;;;;;;5069258;28;20052;-85
2020/12/08 11:54:12;;;;;;;10.88;5.88;;;14.20;45.40;;;;;;5070810;28;20049;-83
2020/12/08 11:56:39;;;;;;;11.25;5.57;;;13.60;46.30;;;;;;5071602;28;20055;-83
2020/12/08 11:59:22;;;;;;;14.57;6.75;;;12.70;48.90;;;;;;5073125;28;20063;-82
2020/12/08 12:01:50;;;;;;;11.15;5.30;;;11.70;52.20;;;;;;5048952;28;20045;-81
2020/12/08 12:04:18;;;;;;;15.50;6.18;;;11.20;52.40;;;;;;5052498;28;20045;-81
2020/12/08 12:06:45;;;;;;;13.73;6.68;;;10.80;54.70;;;;;;5084965;28;20119;-81
2020/12/08 12:09:13;;;;;;;12.43;6.22;;;11.30;53.50;;;;;;5068203;28;20053;-83
2020/12/08 12:11:41;;;;;;;14.00;7.30;;;12.60;50.40;;;;;;5071828;28;20052;-79
2020/12/08 12:14:09;;;;;;;10.25;5.80;;;13.40;47.00;;;;;;5070926;28;20060;-82
2020/12/08 12:16:38;;;;;;;13.45;6.82;;;13.20;47.00;;;;;;5070475;28;20052;-82
2020/12/08 12:19:05;;;;;;;15.38;7.10;;;13.70;46.00;;;;;;5069148;28;20060;-81
2020/12/08 12:21:34;;;;;;;14.05;7.13;;;14.30;45.10;;;;;;5069338;28;20068;-83
2020/12/08 12:24:03;;;;;;;13.75;6.65;;;14.30;45.90;;;;;;5069172;28;20052;-80
2020/12/08 12:26:30;;;;;;;14.15;7.53;;;15.10;43.70;;;;;;5069410;28;20111;-83
2020/12/08 12:29:02;;;;;;;13.90;6.43;;;15.20;42.80;;;;;;5070160;28;20080;-82
2020/12/08 12:31:32;;;;;;;10.57;5.53;;;14.30;44.20;;;;;;5070589;28;20059;-83
2020/12/08 12:34:02;;;;;;;13.30;6.82;;;14.70;42.60;;;;;;5049395;28;20116;-82
2020/12/08 12:36:30;;;;;;;11.20;6.55;;;15.00;43.80;;;;;;5065530;28;20048;-82
2020/12/08 12:38:58;;;;;;;13.13;6.63;;;16.20;41.40;;;;;;5054024;28;20052;-82
2020/12/08 12:41:27;;;;;;;10.35;6.43;;;16.50;40.20;;;;;;5067520;28;20059;-83
2020/12/08 12:43:54;;;;;;;23.25;11.25;;;16.50;39.70;;;;;;5066393;28;20072;-82
2020/12/08 12:46:22;;;;;;;19.65;9.52;;;16.20;39.40;;;;;;5085302;28;20068;-82
2020/12/08 12:48:50;;;;;;;11.48;6.13;;;16.00;41.10;;;;;;5070621;28;20049;-83
2020/12/08 12:51:25;;;;;;;12.25;6.68;;;15.70;41.80;;;;;;5059623;28;20049;-81
2020/12/08 12:53:53;;;;;;;11.82;6.57;;;15.10;41.60;;;;;;5070307;28;20087;-82
2020/12/08 12:56:30;;;;;;;13.50;5.75;;;14.60;43.50;;;;;;5059687;28;20098;-81
2020/12/08 12:58:59;;;;;;;12.93;6.45;;;14.80;43.30;;;;;;5066526;28;20076;-81
2020/12/08 13:01:26;;;;;;;11.95;6.65;;;15.60;41.90;;;;;;5068379;28;20095;-80
2020/12/08 13:03:54;;;;;;;11.30;6.72;;;16.10;40.30;;;;;;5068606;28;20100;-82
2020/12/08 13:06:22;;;;;;;13.50;6.72;;;15.90;40.70;;;;;;5067050;28;20071;-81
2020/12/08 13:08:49;;;;;;;14.88;7.15;;;15.20;42.20;;;;;;5051091;28;20255;-81
2020/12/08 13:11:16;;;;;;;13.65;6.85;;;15.40;41.90;;;;;;5050579;28;20297;-83